createdAt,value
2023-03-04T00:01:16.227Z,27.43
2023-03-04T00:03:43.008Z,29.20
2023-03-04T00:06:09.969Z,27.47
2023-03-04T00:08:36.570Z,29.00
2023-03-04T00:11:03.185Z,28.77
2023-03-04T00:13:29.743Z,29.30
2023-03-04T00:15:56.574Z,30.00
2023-03-04T00:18:23.394Z,29.27
2023-03-04T00:20:50.485Z,27.40
2023-03-04T00:23:17.533Z,28.97
2023-03-04T00:25:44.101Z,28.03
2023-03-04T00:28:10.767Z,29.93
2023-03-04T00:30:37.379Z,29.60
2023-03-04T00:33:03.937Z,29.07
2023-03-04T00:35:30.548Z,28.17
2023-03-04T00:37:57.214Z,28.27
2023-03-04T00:40:23.785Z,30.50
2023-03-04T00:42:50.417Z,30.10
2023-03-04T00:45:17.044Z,29.47
2023-03-04T00:47:43.575Z,30.37
2023-03-04T00:50:10.851Z,30.53
2023-03-04T00:52:37.428Z,30.33
2023-03-04T00:55:05.396Z,30.03
2023-03-04T00:57:32.018Z,27.83
2023-03-04T00:59:58.571Z,27.57
2023-03-04T01:02:25.388Z,26.60
2023-03-04T01:04:52.225Z,27.30
2023-03-04T01:07:19.001Z,25.77
2023-03-04T01:09:45.539Z,25.07
2023-03-04T01:12:12.171Z,23.20
2023-03-04T01:14:38.804Z,24.50
2023-03-04T01:17:05.394Z,26.17
2023-03-04T01:19:32.566Z,25.33
2023-03-04T01:21:59.097Z,26.40
2023-03-04T01:24:25.689Z,26.03
2023-03-04T01:26:52.285Z,25.90
2023-03-04T01:29:18.880Z,22.80
2023-03-04T01:31:45.436Z,22.70
2023-03-04T01:34:11.969Z,22.43
2023-03-04T01:36:38.599Z,23.63
2023-03-04T01:39:05.374Z,22.30
2023-03-04T01:41:32.587Z,23.00
2023-03-04T01:44:02.196Z,20.77
2023-03-04T01:46:30.665Z,21.87
2023-03-04T01:48:57.656Z,22.43
2023-03-04T01:51:24.696Z,22.43
2023-03-04T01:53:53.317Z,22.73
2023-03-04T01:56:24.029Z,22.50
2023-03-04T01:59:17.715Z,21.37
2023-03-04T02:01:53.611Z,21.33
2023-03-04T02:04:23.332Z,22.27
2023-03-04T02:06:50.708Z,22.17
2023-03-04T02:09:18.236Z,21.87
2023-03-04T02:11:46.293Z,23.30
2023-03-04T02:14:14.916Z,25.37
2023-03-04T02:16:41.719Z,24.93
2023-03-04T02:19:24.855Z,26.80
2023-03-04T02:21:51.498Z,26.17
2023-03-04T02:24:41.393Z,24.63
2023-03-04T02:27:08.159Z,24.43
2023-03-04T02:29:34.959Z,24.43
2023-03-04T02:32:01.646Z,23.23
2023-03-04T02:34:36.103Z,25.70
2023-03-04T02:37:04.428Z,23.37
2023-03-04T02:39:45.351Z,22.17
2023-03-04T02:42:12.241Z,22.53
2023-03-04T02:44:41.873Z,24.00
2023-03-04T02:47:10.411Z,22.87
2023-03-04T02:49:38.931Z,22.70
2023-03-04T02:52:08.732Z,21.53
2023-03-04T02:54:35.449Z,22.87
2023-03-04T02:57:05.031Z,24.50
2023-03-04T02:59:31.630Z,21.93
2023-03-04T03:01:58.404Z,23.03
2023-03-04T03:04:26.665Z,23.03
2023-03-04T03:06:53.271Z,22.37
2023-03-04T03:09:20.477Z,20.50
2023-03-04T03:11:47.145Z,20.23
2023-03-04T03:14:13.801Z,21.37
2023-03-04T03:16:40.422Z,20.93
2023-03-04T03:19:07.069Z,21.93
2023-03-04T03:21:33.635Z,21.33
2023-03-04T03:24:00.273Z,21.87
2023-03-04T03:26:26.831Z,21.90
2023-03-04T03:28:53.397Z,21.03
2023-03-04T03:31:20.137Z,21.53
2023-03-04T03:33:46.930Z,23.43
2023-03-04T03:36:13.573Z,20.90
2023-03-04T03:38:40.183Z,22.90
2023-03-04T03:41:06.720Z,23.00
2023-03-04T03:43:33.299Z,21.40
2023-03-04T03:45:59.899Z,20.50
2023-03-04T03:48:26.492Z,21.17
2023-03-04T03:50:53.053Z,22.33
2023-03-04T03:53:19.731Z,23.13
2023-03-04T03:55:46.308Z,22.87
2023-03-04T03:58:12.918Z,22.53
2023-03-04T04:00:39.519Z,22.93
2023-03-04T04:03:06.397Z,22.23
2023-03-04T04:05:33.059Z,22.97
2023-03-04T04:07:59.664Z,22.37
2023-03-04T04:10:26.455Z,23.47
2023-03-04T04:12:53.257Z,21.07
2023-03-04T04:15:19.906Z,21.93
2023-03-04T04:17:46.475Z,22.43
2023-03-04T04:20:13.118Z,22.10
2023-03-04T04:22:39.664Z,23.03
2023-03-04T04:25:08.829Z,22.97
2023-03-04T04:27:35.503Z,21.67
2023-03-04T04:30:02.277Z,21.07
2023-03-04T04:32:28.852Z,21.70
2023-03-04T04:34:55.534Z,21.23
2023-03-04T04:37:22.137Z,21.23
2023-03-04T04:39:48.751Z,22.20
2023-03-04T04:42:15.313Z,21.57
2023-03-04T04:44:41.866Z,21.53
2023-03-04T04:47:09.988Z,22.20
2023-03-04T04:49:36.675Z,21.90
2023-03-04T04:52:03.595Z,21.00
2023-03-04T04:54:30.299Z,22.37
2023-03-04T04:56:56.886Z,20.97
2023-03-04T04:59:23.565Z,22.30
2023-03-04T05:01:50.250Z,22.07
2023-03-04T05:04:16.880Z,22.70
2023-03-04T05:06:43.564Z,23.07
2023-03-04T05:09:10.160Z,23.43
2023-03-04T05:11:36.758Z,21.83
2023-03-04T05:14:03.394Z,22.60
2023-03-04T05:16:29.999Z,22.77
2023-03-04T05:18:56.538Z,22.27
2023-03-04T05:21:23.107Z,21.87
2023-03-04T05:23:49.774Z,23.00
2023-03-04T05:26:18.260Z,22.67
2023-03-04T05:28:45.618Z,27.83
2023-03-04T05:31:12.391Z,24.33
2023-03-04T05:33:39.409Z,23.13
2023-03-04T05:36:06.617Z,24.40
2023-03-04T05:38:33.627Z,23.60
2023-03-04T05:41:03.358Z,23.13
2023-03-04T05:43:30.840Z,23.17
2023-03-04T05:45:57.527Z,24.37
2023-03-04T05:48:24.225Z,22.83
2023-03-04T05:50:59.138Z,23.47
2023-03-04T05:53:26.072Z,24.13
2023-03-04T05:55:52.726Z,23.93
2023-03-04T05:58:20.153Z,24.57
2023-03-04T06:00:47.795Z,24.80
2023-03-04T06:03:19.299Z,23.20
2023-03-04T06:05:45.906Z,24.63
2023-03-04T06:08:13.311Z,30.33
2023-03-04T06:10:41.642Z,27.27
2023-03-04T06:13:09.383Z,25.67
2023-03-04T06:15:36.077Z,25.30
2023-03-04T06:18:02.983Z,24.73
2023-03-04T06:20:29.642Z,25.27
2023-03-04T06:22:56.276Z,26.50
2023-03-04T06:25:23.894Z,24.73
2023-03-04T06:27:50.985Z,24.57
2023-03-04T06:30:18.954Z,24.63
2023-03-04T06:32:47.459Z,26.17
2023-03-04T06:35:15.592Z,27.90
2023-03-04T06:37:42.793Z,26.57
2023-03-04T06:40:10.221Z,25.90
2023-03-04T06:42:37.575Z,28.77
2023-03-04T06:45:04.997Z,26.63
2023-03-04T06:47:31.590Z,26.93
2023-03-04T06:49:58.250Z,26.00
2023-03-04T06:52:25.093Z,25.10
2023-03-04T06:54:51.714Z,24.63
2023-03-04T06:57:18.336Z,26.30
2023-03-04T06:59:44.897Z,26.13
2023-03-04T07:02:12.513Z,26.60
2023-03-04T07:04:40.030Z,25.07
2023-03-04T07:07:06.859Z,25.97
2023-03-04T07:09:33.466Z,25.13
2023-03-04T07:12:00.082Z,24.70
2023-03-04T07:14:27.771Z,23.60
2023-03-04T07:16:54.561Z,24.17
2023-03-04T07:19:21.315Z,25.60
2023-03-04T07:21:47.910Z,24.77
2023-03-04T07:24:14.641Z,23.47
2023-03-04T07:26:41.333Z,23.43
2023-03-04T07:29:07.938Z,21.20
2023-03-04T07:31:35.651Z,20.13
2023-03-04T07:34:08.065Z,22.63
2023-03-04T07:36:36.773Z,21.57
2023-03-04T07:39:03.969Z,20.60
2023-03-04T07:41:32.398Z,20.93
2023-03-04T07:43:59.425Z,19.60
2023-03-04T07:46:26.370Z,20.20
2023-03-04T07:48:52.949Z,20.00
2023-03-04T07:51:21.922Z,20.57
2023-03-04T07:53:51.167Z,19.90
2023-03-04T07:56:24.423Z,19.90
2023-03-04T07:58:53.552Z,21.10
2023-03-04T08:01:23.967Z,19.30
2023-03-04T08:03:50.608Z,20.67
2023-03-04T08:06:19.463Z,20.47
2023-03-04T08:08:46.495Z,21.37
2023-03-04T08:11:16.299Z,21.20
2023-03-04T08:13:43.653Z,21.67
2023-03-04T08:16:15.599Z,24.20
2023-03-04T08:18:48.156Z,23.50
2023-03-04T08:21:18.315Z,22.47
2023-03-04T08:23:47.061Z,21.80
2023-03-04T08:26:22.861Z,21.13
2023-03-04T08:28:50.332Z,21.60
2023-03-04T08:31:18.263Z,22.13
2023-03-04T08:33:46.294Z,22.13
2023-03-04T08:36:13.849Z,20.73
2023-03-04T08:38:40.758Z,21.93
2023-03-04T08:41:07.377Z,22.23
2023-03-04T08:43:34.750Z,22.47
2023-03-04T08:46:04.708Z,21.40
2023-03-04T08:48:31.408Z,20.70
2023-03-04T08:51:00.159Z,20.93
2023-03-04T08:53:27.571Z,20.90
2023-03-04T08:55:54.129Z,22.67
2023-03-04T08:58:20.971Z,20.57
2023-03-04T09:00:51.347Z,20.80
2023-03-04T09:03:21.764Z,19.17
2023-03-04T09:05:49.238Z,19.87
2023-03-04T09:08:16.494Z,20.33
2023-03-04T09:10:43.904Z,18.37
2023-03-04T09:13:17.378Z,18.77
2023-03-04T09:15:46.287Z,17.87
2023-03-04T09:18:13.975Z,19.00
2023-03-04T09:20:40.810Z,19.63
2023-03-04T09:23:09.410Z,18.83
2023-03-04T09:25:37.777Z,17.53
2023-03-04T09:28:05.445Z,18.17
2023-03-04T09:30:32.719Z,18.03
2023-03-04T09:32:59.329Z,19.13
2023-03-04T09:35:26.049Z,18.70
2023-03-04T09:37:52.928Z,19.30
2023-03-04T09:40:27.202Z,18.40
2023-03-04T09:43:03.273Z,19.07
2023-03-04T09:45:38.497Z,18.23
2023-03-04T09:48:07.068Z,17.57
2023-03-04T09:50:39.551Z,17.60
2023-03-04T09:53:26.360Z,22.58
2023-03-04T09:55:53.176Z,18.53
2023-03-04T09:58:51.846Z,18.43
2023-03-04T10:01:48.026Z,19.20
2023-03-04T10:04:32.324Z,19.70
2023-03-04T10:07:00.351Z,19.20
2023-03-04T10:09:39.104Z,19.20
2023-03-04T10:12:15.820Z,21.83
2023-03-04T10:14:59.267Z,20.50
2023-03-04T10:17:43.038Z,20.67
2023-03-04T10:20:19.503Z,20.33
2023-03-04T10:22:51.861Z,21.47
2023-03-04T10:25:25.549Z,21.83
2023-03-04T10:28:05.899Z,22.93
2023-03-04T10:30:51.320Z,22.70
2023-03-04T10:33:21.316Z,23.07
2023-03-04T10:36:23.064Z,24.57
2023-03-04T10:38:53.524Z,22.47
2023-03-04T10:41:22.797Z,24.97
2023-03-04T10:44:25.460Z,25.67
2023-03-04T10:46:55.692Z,25.63
2023-03-04T10:49:24.789Z,25.97
2023-03-04T10:52:26.634Z,25.93
2023-03-04T10:54:56.860Z,25.53
2023-03-04T10:57:50.981Z,26.27
2023-03-04T11:00:17.483Z,25.80
2023-03-04T11:02:48.376Z,27.50
2023-03-04T11:05:15.166Z,26.23
2023-03-04T11:07:55.883Z,27.03
2023-03-04T11:10:25.034Z,28.07
2023-03-04T11:12:52.034Z,28.43
2023-03-04T11:15:27.563Z,29.80
2023-03-04T11:18:06.040Z,29.37
2023-03-04T11:20:32.613Z,28.70
2023-03-04T11:23:05.449Z,28.53
2023-03-04T11:25:46.270Z,30.60
2023-03-04T11:28:26.096Z,30.23
2023-03-04T11:30:57.028Z,32.17
2023-03-04T11:33:43.505Z,31.30
2023-03-04T11:36:10.651Z,28.57
2023-03-04T11:38:40.251Z,30.87
2023-03-04T11:41:13.162Z,31.97
2023-03-04T11:43:42.491Z,32.50
2023-03-04T11:46:28.248Z,35.30
2023-03-04T11:49:14.005Z,33.23
2023-03-04T11:51:48.493Z,30.83
2023-03-04T11:54:21.397Z,30.13
2023-03-04T11:56:51.055Z,30.80
2023-03-04T11:59:21.192Z,29.50
2023-03-04T12:01:48.177Z,30.97
2023-03-04T12:04:40.646Z,30.50
2023-03-04T12:07:36.647Z,31.87
2023-03-04T12:10:33.335Z,30.60
2023-03-04T12:13:14.458Z,30.57
2023-03-04T12:15:56.723Z,31.97
2023-03-04T12:18:32.116Z,31.43
2023-03-04T12:21:04.460Z,28.80
2023-03-04T12:24:07.408Z,32.13
2023-03-04T12:26:50.578Z,31.43
2023-03-04T12:29:58.434Z,40.65
2023-03-04T12:32:34.838Z,34.70
2023-03-04T12:35:23.367Z,32.67
2023-03-04T12:38:25.615Z,34.43
2023-03-04T12:41:11.657Z,30.47
2023-03-04T12:44:19.430Z,32.67
2023-03-04T12:47:00.343Z,33.73
2023-03-04T12:49:51.885Z,31.33
2023-03-04T12:52:35.565Z,31.57
2023-03-04T12:55:12.337Z,30.50
2023-03-04T12:57:40.459Z,26.47
2023-03-04T13:00:34.803Z,29.53
2023-03-04T13:03:10.520Z,30.30
2023-03-04T13:05:43.293Z,28.77
2023-03-04T13:08:24.621Z,32.05
2023-03-04T13:10:52.337Z,26.33
2023-03-04T13:13:41.452Z,25.20
2023-03-04T13:16:13.959Z,24.03
2023-03-04T13:18:40.668Z,23.37
2023-03-04T13:21:26.733Z,24.53
2023-03-04T13:23:53.845Z,22.63
2023-03-04T13:26:30.312Z,22.43
2023-03-04T13:29:13.934Z,21.57
2023-03-04T13:31:59.646Z,21.17
2023-03-04T13:34:46.050Z,20.93
2023-03-04T13:37:55.974Z,17.73
2023-03-04T13:40:23.283Z,17.37
2023-03-04T13:42:50.504Z,18.40
2023-03-04T13:45:31.908Z,16.53
2023-03-04T13:47:58.942Z,15.87
2023-03-04T13:50:38.120Z,16.00
2023-03-04T13:53:32.081Z,16.23
2023-03-04T13:56:09.233Z,16.47
2023-03-04T13:58:37.652Z,15.77
2023-03-04T14:01:04.741Z,15.70
2023-03-04T14:03:31.992Z,15.77
2023-03-04T14:06:17.177Z,14.30
2023-03-04T14:08:45.110Z,15.73
2023-03-04T14:11:24.859Z,16.80
2023-03-04T14:13:52.343Z,16.27
2023-03-04T14:16:21.177Z,17.33
2023-03-04T14:18:58.464Z,17.23
2023-03-04T14:21:25.190Z,15.67
2023-03-04T14:24:04.668Z,21.23
2023-03-04T14:26:31.719Z,18.73
2023-03-04T14:28:59.615Z,16.63
2023-03-04T14:31:30.018Z,18.20
2023-03-04T14:34:02.356Z,19.00
2023-03-04T14:36:35.620Z,18.37
2023-03-04T14:39:06.177Z,18.90
2023-03-04T14:41:35.729Z,18.73
2023-03-04T14:44:30.088Z,19.60
2023-03-04T14:47:07.858Z,19.23
2023-03-04T14:49:36.917Z,21.20
2023-03-04T14:52:03.787Z,19.53
2023-03-04T14:54:34.266Z,19.97
2023-03-04T14:57:21.179Z,17.73
2023-03-04T14:59:47.961Z,18.90
2023-03-04T15:02:31.174Z,18.70
2023-03-04T15:05:16.427Z,19.60
2023-03-04T15:07:45.016Z,18.43
2023-03-04T15:10:12.644Z,17.93
2023-03-04T15:12:39.248Z,17.43
2023-03-04T15:15:39.930Z,18.80
2023-03-04T15:18:27.918Z,18.10
2023-03-04T15:21:04.705Z,17.07
2023-03-04T15:23:33.457Z,17.10
2023-03-04T15:26:03.091Z,17.50
2023-03-04T15:28:37.312Z,17.80
2023-03-04T15:31:05.860Z,20.27
2023-03-04T15:33:32.807Z,15.53
2023-03-04T15:36:02.328Z,18.77
2023-03-04T15:38:29.817Z,21.45
2023-03-04T15:40:58.512Z,19.97
2023-03-04T15:43:25.312Z,20.00
2023-03-04T15:45:52.730Z,20.20
2023-03-04T15:48:20.537Z,22.33
2023-03-04T15:51:02.723Z,20.63
2023-03-04T15:53:42.034Z,23.30
2023-03-04T15:56:16.272Z,24.17
2023-03-04T15:58:44.085Z,23.80
2023-03-04T16:01:16.625Z,20.80
2023-03-04T16:03:43.349Z,18.30
2023-03-04T16:06:13.011Z,19.20
2023-03-04T16:08:40.680Z,19.23
2023-03-04T16:11:10.556Z,18.77
2023-03-04T16:13:37.093Z,18.93
2023-03-04T16:16:03.895Z,19.53
2023-03-04T16:18:30.967Z,22.63
2023-03-04T16:20:57.532Z,21.70
2023-03-04T16:23:24.975Z,21.30
2023-03-04T16:25:56.551Z,21.50
2023-03-04T16:28:23.339Z,20.63
2023-03-04T16:30:50.352Z,21.77
2023-03-04T16:33:17.144Z,21.83
2023-03-04T16:35:45.336Z,20.53
2023-03-04T16:38:22.203Z,21.93
2023-03-04T16:40:49.557Z,18.83
2023-03-04T16:43:16.107Z,19.20
2023-03-04T16:45:42.841Z,20.80
2023-03-04T16:48:09.519Z,20.63
2023-03-04T16:50:37.119Z,20.90
2023-03-04T16:53:04.960Z,22.20
2023-03-04T16:55:32.305Z,21.87
2023-03-04T16:57:59.055Z,22.23
2023-03-04T17:00:27.959Z,22.10
2023-03-04T17:03:00.999Z,21.43
2023-03-04T17:05:32.250Z,21.60
2023-03-04T17:07:59.171Z,21.13
2023-03-04T17:10:26.062Z,22.57
2023-03-04T17:12:52.913Z,21.33
2023-03-04T17:15:19.784Z,21.70
2023-03-04T17:17:46.518Z,20.47
2023-03-04T17:20:18.009Z,21.37
2023-03-04T17:22:45.237Z,21.60
2023-03-04T17:25:15.799Z,22.90
2023-03-04T17:27:43.112Z,20.40
2023-03-04T17:30:12.773Z,22.90
2023-03-04T17:32:40.126Z,23.77
2023-03-04T17:35:08.693Z,23.17
2023-03-04T17:37:35.846Z,21.47
2023-03-04T17:40:08.663Z,20.53
2023-03-04T17:42:35.493Z,21.53
2023-03-04T17:45:02.180Z,22.27
2023-03-04T17:47:28.904Z,21.27
2023-03-04T17:49:55.599Z,20.67
2023-03-04T17:52:22.191Z,21.53
2023-03-04T17:54:48.827Z,18.70
2023-03-04T17:57:15.441Z,19.93
2023-03-04T17:59:42.192Z,19.27
2023-03-04T18:02:14.170Z,19.23
2023-03-04T18:04:40.786Z,20.77
2023-03-04T18:07:07.511Z,20.55
2023-03-04T18:09:34.063Z,20.37
2023-03-04T18:12:01.317Z,20.40
2023-03-04T18:14:28.023Z,20.67
2023-03-04T18:16:54.721Z,19.47
2023-03-04T18:19:21.277Z,19.40
2023-03-04T18:21:47.911Z,19.43
2023-03-04T18:24:14.748Z,22.53
2023-03-04T18:26:41.382Z,20.80
2023-03-04T18:29:08.141Z,22.80
2023-03-04T18:31:36.671Z,21.00
2023-03-04T18:34:04.764Z,20.67
2023-03-04T18:36:31.585Z,20.57
2023-03-04T18:38:59.479Z,19.67
2023-03-04T18:41:27.771Z,18.90
2023-03-04T18:43:54.778Z,18.30
2023-03-04T18:46:45.521Z,20.27
2023-03-04T18:49:13.980Z,23.48
2023-03-04T18:51:40.616Z,21.23
2023-03-04T18:54:07.426Z,20.67
2023-03-04T18:56:41.130Z,20.97
2023-03-04T18:59:32.402Z,19.23
2023-03-04T19:02:03.665Z,22.47
2023-03-04T19:04:30.741Z,21.50
2023-03-04T19:06:58.941Z,21.17
2023-03-04T19:09:25.708Z,18.77
2023-03-04T19:11:52.289Z,20.27
2023-03-04T19:14:18.867Z,21.27
2023-03-04T19:16:45.500Z,20.63
2023-03-04T19:19:12.587Z,20.73
2023-03-04T19:21:40.174Z,20.17
2023-03-04T19:24:07.164Z,18.63
2023-03-04T19:26:33.899Z,19.53
2023-03-04T19:29:01.791Z,18.30
2023-03-04T19:31:28.867Z,19.33
2023-03-04T19:33:55.500Z,19.70
2023-03-04T19:36:22.197Z,19.60
2023-03-04T19:38:48.852Z,18.80
2023-03-04T19:41:16.898Z,18.80
2023-03-04T19:43:45.876Z,22.23
2023-03-04T19:46:13.935Z,20.80
2023-03-04T19:48:41.436Z,18.87
2023-03-04T19:51:19.959Z,19.50
2023-03-04T19:53:46.954Z,21.83
2023-03-04T19:56:13.621Z,23.27
2023-03-04T19:58:40.320Z,21.20
2023-03-04T20:01:06.938Z,20.57
2023-03-04T20:03:33.685Z,22.13
2023-03-04T20:06:05.905Z,20.27
2023-03-04T20:08:32.730Z,19.97
2023-03-04T20:10:59.305Z,19.33
2023-03-04T20:13:26.123Z,18.53
2023-03-04T20:15:52.822Z,18.20
2023-03-04T20:18:19.525Z,20.10
2023-03-04T20:20:46.176Z,19.00
2023-03-04T20:23:12.714Z,20.57
2023-03-04T20:25:39.446Z,17.90
2023-03-04T20:28:06.046Z,19.70
2023-03-04T20:30:32.608Z,21.90
2023-03-04T20:32:59.184Z,18.57
2023-03-04T20:35:25.761Z,20.20
2023-03-04T20:37:52.407Z,22.23
2023-03-04T20:40:19.072Z,19.63
2023-03-04T20:42:46.976Z,19.27
2023-03-04T20:45:13.755Z,22.85
2023-03-04T20:47:40.328Z,18.63
2023-03-04T20:50:07.303Z,18.67
2023-03-04T20:52:33.859Z,18.97
2023-03-04T20:55:00.476Z,17.30
2023-03-04T20:57:27.135Z,17.00
2023-03-04T20:59:53.683Z,17.60
2023-03-04T21:02:20.667Z,16.50
2023-03-04T21:04:47.249Z,14.77
2023-03-04T21:07:14.048Z,16.23
2023-03-04T21:09:40.732Z,15.60
2023-03-04T21:12:07.958Z,17.83
2023-03-04T21:14:34.531Z,16.87
2023-03-04T21:17:03.567Z,17.00
2023-03-04T21:19:39.874Z,17.30
2023-03-04T21:22:06.491Z,17.17
2023-03-04T21:24:35.355Z,17.43
2023-03-04T21:27:04.170Z,17.60
2023-03-04T21:29:30.844Z,19.43
2023-03-04T21:32:17.229Z,18.17
2023-03-04T21:34:51.790Z,18.60
2023-03-04T21:37:22.545Z,19.70
2023-03-04T21:39:49.187Z,18.47
2023-03-04T21:42:15.911Z,19.70
2023-03-04T21:44:49.687Z,19.13
2023-03-04T21:47:17.475Z,18.17
2023-03-04T21:49:44.163Z,19.10
2023-03-04T21:52:10.885Z,19.73
2023-03-04T21:54:37.471Z,20.30
2023-03-04T21:57:04.096Z,21.80
2023-03-04T21:59:30.689Z,20.13
2023-03-04T22:01:57.732Z,20.73
2023-03-04T22:04:24.421Z,18.87
2023-03-04T22:06:50.989Z,20.50
2023-03-04T22:09:17.684Z,19.33
2023-03-04T22:11:44.346Z,18.57
2023-03-04T22:14:11.128Z,17.93
2023-03-04T22:16:49.036Z,18.90
2023-03-04T22:19:21.140Z,19.73
2023-03-04T22:21:47.718Z,18.50
2023-03-04T22:24:14.291Z,19.10
2023-03-04T22:26:40.941Z,18.17
2023-03-04T22:29:07.636Z,18.70
2023-03-04T22:31:36.650Z,18.27
2023-03-04T22:34:06.857Z,19.03
2023-03-04T22:36:35.826Z,18.00
2023-03-04T22:39:04.393Z,20.20
2023-03-04T22:41:30.953Z,19.00
2023-03-04T22:43:58.708Z,18.67
2023-03-04T22:46:30.957Z,18.43
2023-03-04T22:49:00.040Z,17.80
2023-03-04T22:51:27.394Z,17.80
2023-03-04T22:53:54.212Z,19.43
2023-03-04T22:56:21.034Z,19.50
2023-03-04T22:58:48.155Z,21.50
2023-03-04T23:01:16.040Z,20.97
2023-03-04T23:03:44.177Z,18.57
2023-03-04T23:06:17.797Z,19.17
2023-03-04T23:08:46.713Z,18.70
2023-03-04T23:11:21.790Z,18.60
2023-03-04T23:13:49.918Z,17.83
2023-03-04T23:16:30.402Z,17.57
2023-03-04T23:18:59.251Z,17.47
2023-03-04T23:21:28.148Z,16.45
2023-03-04T23:23:54.938Z,16.80
2023-03-04T23:26:27.421Z,16.83
2023-03-04T23:28:56.805Z,15.77
2023-03-04T23:31:23.901Z,16.83
2023-03-04T23:33:50.554Z,16.33
2023-03-04T23:36:18.950Z,17.63
2023-03-04T23:38:47.805Z,16.00
2023-03-04T23:41:25.806Z,16.33
2023-03-04T23:43:54.447Z,17.03
2023-03-04T23:46:21.383Z,17.10
2023-03-04T23:48:48.730Z,16.90
2023-03-04T23:51:17.900Z,17.77
2023-03-04T23:53:44.598Z,18.30
2023-03-04T23:56:13.359Z,18.30
2023-03-04T23:58:41.213Z,17.67
